Terminal Aerodrome Forecast
Issued by NWS Cleveland, OH

Home | Current Version | Previous Version | Text Only | Print | Product List | Glossary Off
Versions: 1 2 3 4 5 6 7 8 9 10 11 12 13 14 15 16 17 18 19 20 21 22 23 24 25

000
FTUS41 KCLE 212000 AAB
TAFCAK
TAF AMD
KCAK 212043Z 2121/2218 23012G16KT P6SM SCT020 BKN040 BKN150
     FM220000 23008KT P6SM SCT035 BKN100
      TEMPO 2202/2206 1SM TSRA BR SCT015 OVC025CB
     FM220600 25004KT P6SM BKN035
     FM221600 24007KT 6SM BR VCSH BKN025=

USA.gov is the U.S. government's official web portal to all federal, state and local government web resources and services.